Time;durP1;ratioP1;P1;durP2;ratioP2;P2;SDS_P1;SDS_P2;PMS_P1;PMS_P2;Temp;Humidity;BMP_temperature;BMP_pressure;BME280_temperature;BME280_humidity;BME280_pressure;Samples;Min_cycle;Max_cycle;Signal;HPM_P1;HPM_P2
2022/11/01 00:01:20;;;;;;;32.58;29.77;;;;;;;15.99;66.47;100708.88;5034818;28;20107;-69
2022/11/01 00:03:45;;;;;;;31.65;29.45;;;;;;;15.99;66.40;100712.41;5036383;28;20373;-72
2022/11/01 00:06:10;;;;;;;30.67;28.58;;;;;;;15.99;66.94;100700.69;5034993;28;20052;-69
2022/11/01 00:08:36;;;;;;;30.77;28.77;;;;;;;15.99;66.76;100692.53;5036104;28;20117;-70
2022/11/01 00:11:07;;;;;;;31.00;28.83;;;;;;;16.00;66.70;100705.88;5035939;28;20505;-70
2022/11/01 00:13:32;;;;;;;30.52;28.27;;;;;;;15.98;67.02;100705.34;5035931;28;20070;-71
2022/11/01 00:15:58;;;;;;;31.10;29.13;;;;;;;15.99;66.40;100701.50;5035659;28;20476;-70
2022/11/01 00:18:24;;;;;;;32.22;29.73;;;;;;;15.99;66.73;100698.78;5033952;28;20091;-71
2022/11/01 00:20:49;;;;;;;30.30;28.30;;;;;;;15.98;66.88;100694.44;5035814;28;20033;-71
2022/11/01 00:23:14;;;;;;;33.63;30.92;;;;;;;15.99;66.95;100693.34;5036353;28;20037;-70
2022/11/01 00:25:40;;;;;;;30.38;28.40;;;;;;;15.99;66.81;100684.34;5035910;28;20034;-70
2022/11/01 00:28:05;;;;;;;32.00;29.60;;;;;;;15.98;67.02;100686.28;5035927;28;20396;-71
2022/11/01 00:30:31;;;;;;;29.80;27.90;;;;;;;16.00;67.08;100680.53;5035546;28;20037;-71
2022/11/01 00:32:57;;;;;;;31.25;29.30;;;;;;;15.99;66.90;100684.34;5035359;28;20045;-71
2022/11/01 00:35:23;;;;;;;32.45;30.05;;;;;;;15.98;67.14;100680.00;5035744;28;20041;-71
2022/11/01 00:37:48;;;;;;;29.73;28.02;;;;;;;15.99;67.12;100676.19;5036019;28;20037;-69
2022/11/01 00:40:14;;;;;;;29.75;27.85;;;;;;;15.99;67.25;100673.47;5034090;28;20037;-68
2022/11/01 00:42:39;;;;;;;29.65;27.95;;;;;;;15.99;66.81;100670.72;5035654;28;20025;-71
2022/11/01 00:45:05;;;;;;;30.20;28.25;;;;;;;15.99;67.05;100665.28;5034249;28;20428;-70
2022/11/01 00:47:30;;;;;;;32.42;30.00;;;;;;;15.99;66.73;100674.25;5034959;28;20037;-72
2022/11/01 00:49:55;;;;;;;29.02;27.38;;;;;;;15.99;67.06;100674.25;5034475;28;20025;-71
2022/11/01 00:52:21;;;;;;;29.63;27.63;;;;;;;16.00;66.82;100661.44;5035175;28;20071;-70
2022/11/01 00:54:46;;;;;;;29.15;27.40;;;;;;;16.00;66.80;100659.56;5035409;28;20105;-71
2022/11/01 00:57:11;;;;;;;30.25;28.40;;;;;;;16.01;66.87;100665.81;5033890;28;20037;-72
2022/11/01 00:59:37;;;;;;;30.80;28.88;;;;;;;16.00;67.17;100653.28;5034978;28;20080;-71
2022/11/01 01:02:02;;;;;;;29.70;27.80;;;;;;;16.01;67.18;100652.19;5035018;28;20048;-69
2022/11/01 01:04:27;;;;;;;30.13;28.13;;;;;;;16.01;66.82;100660.38;5034853;28;20119;-69
2022/11/01 01:06:53;;;;;;;29.48;27.27;;;;;;;16.01;66.92;100658.47;5034968;28;20061;-73
2022/11/01 01:09:18;;;;;;;31.02;29.15;;;;;;;16.01;67.10;100650.28;5033649;28;20036;-70
2022/11/01 01:11:44;;;;;;;28.80;26.95;;;;;;;16.02;66.93;100656.53;5034491;28;20072;-70
2022/11/01 01:14:10;;;;;;;30.38;28.23;;;;;;;16.02;67.22;100660.06;5034781;28;20030;-71
2022/11/01 01:16:35;;;;;;;29.13;27.27;;;;;;;16.02;67.18;100657.34;5034352;28;20446;-71
2022/11/01 01:19:00;;;;;;;30.23;28.20;;;;;;;16.02;67.33;100654.63;5033469;28;20111;-71
2022/11/01 01:21:26;;;;;;;31.10;29.02;;;;;;;16.03;67.00;100655.47;5034648;28;20061;-71
2022/11/01 01:23:53;;;;;;;29.60;27.10;;;;;;;16.04;67.04;100656.28;5033250;28;20033;-69
2022/11/01 01:26:19;;;;;;;29.60;27.40;;;;;;;16.04;67.28;100651.63;5034985;28;20108;-73
2022/11/01 01:28:45;;;;;;;30.70;28.63;;;;;;;16.04;67.51;100654.34;5034560;28;20036;-72
2022/11/01 01:31:11;;;;;;;29.08;27.27;;;;;;;16.06;67.17;100654.09;5033752;28;20120;-71
2022/11/01 01:33:37;;;;;;;32.55;29.98;;;;;;;16.05;67.14;100650.56;5034729;28;20045;-70
2022/11/01 01:36:04;;;;;;;30.33;28.40;;;;;;;16.06;67.26;100654.91;5034686;28;20438;-74
2022/11/01 01:38:29;;;;;;;29.30;27.40;;;;;;;16.07;67.56;100645.63;5033311;28;20041;-72
2022/11/01 01:41:54;;;;;;;29.50;27.88;;;;;;;16.08;67.31;100654.63;5033124;28;20104;-73
2022/11/01 01:43:42;;;;;;;30.73;28.40;;;;;;;16.07;67.45;100651.06;5034267;28;20099;-71
2022/11/01 01:46:09;;;;;;;29.10;27.17;;;;;;;16.08;67.62;100655.44;5032877;28;20037;-71
2022/11/01 01:48:36;;;;;;;29.10;27.35;;;;;;;16.09;67.69;100648.06;5034094;28;20034;-71
2022/11/01 01:51:06;;;;;;;30.75;28.95;;;;;;;16.09;67.33;100648.06;5034027;28;20036;-71
2022/11/01 01:53:44;;;;;;;29.42;27.60;;;;;;;16.09;67.46;100651.59;5034520;28;20033;-72
2022/11/01 01:56:27;;;;;;;30.27;28.37;;;;;;;16.10;67.54;100647.81;5032893;28;20543;-71
2022/11/01 01:59:00;;;;;;;28.13;26.63;;;;;;;16.10;67.20;100663.31;5034101;28;20061;-72
2022/11/01 02:01:26;;;;;;;29.48;27.77;;;;;;;16.11;67.25;100663.03;5049207;28;20036;-70
2022/11/01 02:03:52;;;;;;;30.17;28.23;;;;;;;16.12;67.63;100659.22;5032796;28;20029;-71
2022/11/01 02:06:19;;;;;;;30.10;28.35;;;;;;;16.12;67.63;100655.66;5033889;28;20121;-72
2022/11/01 02:08:48;;;;;;;29.65;28.05;;;;;;;16.13;67.67;100662.78;5033780;28;20033;-71
2022/11/01 02:11:15;;;;;;;28.85;27.15;;;;;;;16.14;67.28;100658.94;5032671;28;20485;-71
2022/11/01 02:13:41;;;;;;;30.92;28.90;;;;;;;16.14;67.06;100656.22;5032294;28;20045;-70
2022/11/01 02:16:15;;;;;;;30.30;28.27;;;;;;;16.14;67.24;100657.03;5032440;28;20037;-71
2022/11/01 02:18:47;;;;;;;30.50;28.70;;;;;;;16.16;67.58;100662.19;5033634;28;20033;-72
2022/11/01 02:21:24;;;;;;;30.70;28.70;;;;;;;16.15;67.59;100653.22;5033694;28;20466;-71
2022/11/01 02:24:15;;;;;;;29.70;28.00;;;;;;;16.16;67.52;100664.94;5033877;28;20033;-72
2022/11/01 02:27:00;;;;;;;32.10;30.05;;;;;;;16.16;67.69;100665.72;5033525;28;20113;-70
2022/11/01 02:29:43;;;;;;;30.48;27.75;;;;;;;16.17;67.59;100663.81;5034075;28;20036;-74
2022/11/01 02:32:24;;;;;;;29.50;27.55;;;;;;;16.18;67.56;100662.75;5033386;28;20114;-71
2022/11/01 02:35:07;;;;;;;28.67;27.08;;;;;;;16.18;67.68;100660.81;5033210;28;20030;-70
2022/11/01 02:37:52;;;;;;;30.10;28.25;;;;;;;16.18;67.22;100655.38;5033597;28;20479;-71
2022/11/01 02:40:43;;;;;;;30.10;27.98;;;;;;;16.18;67.57;100652.66;5033431;28;20471;-71
2022/11/01 02:43:17;;;;;;;29.23;27.52;;;;;;;16.18;67.15;100666.28;5033726;28;20453;-71
2022/11/01 02:45:47;;;;;;;30.73;28.58;;;;;;;16.19;67.29;100667.09;5033356;28;20037;-71
2022/11/01 02:48:14;;;;;;;28.73;26.98;;;;;;;16.19;67.60;100667.88;5033587;28;20033;-69
2022/11/01 02:50:44;;;;;;;29.63;27.83;;;;;;;16.20;67.17;100680.44;5033502;28;20049;-71
2022/11/01 02:53:10;;;;;;;29.05;27.30;;;;;;;16.20;67.36;100685.03;5033331;28;20523;-71
2022/11/01 02:55:36;;;;;;;30.45;28.70;;;;;;;16.22;67.68;100688.31;5033215;28;20033;-70
2022/11/01 02:58:26;;;;;;;26.58;25.08;;;;;;;16.22;67.40;100685.59;5033009;28;20385;-72
2022/11/01 03:00:52;;;;;;;30.95;28.77;;;;;;;16.22;67.40;100697.31;5033116;28;20025;-71
2022/11/01 03:03:17;;;;;;;29.52;27.38;;;;;;;16.22;67.28;100708.19;5033554;28;20044;-72
2022/11/01 03:05:51;;;;;;;30.63;28.45;;;;;;;16.23;67.23;100714.50;5033558;28;20096;-71
2022/11/01 03:08:24;;;;;;;28.58;26.95;;;;;;;16.23;67.12;100711.75;5033774;28;20040;-74
2022/11/01 03:11:04;;;;;;;30.55;28.58;;;;;;;16.23;67.31;100717.22;5033233;28;20038;-71
2022/11/01 03:13:36;;;;;;;28.23;26.52;;;;;;;16.24;67.06;100743.34;5033215;28;20021;-72
2022/11/01 03:16:09;;;;;;;28.25;26.83;;;;;;;16.26;67.56;100746.63;5033445;28;20465;-71
2022/11/01 03:18:37;;;;;;;28.45;26.80;;;;;;;16.25;67.43;100755.88;5033092;28;20025;-72
2022/11/01 03:21:16;;;;;;;27.80;25.83;;;;;;;16.27;67.11;100764.59;5033558;28;20113;-70
2022/11/01 03:23:53;;;;;;;28.70;26.95;;;;;;;16.25;67.02;100766.78;5033353;28;20036;-72
2022/11/01 03:26:25;;;;;;;29.58;26.85;;;;;;;16.24;66.82;100786.97;5049122;28;20412;-72
2022/11/01 03:28:57;;;;;;;28.33;26.75;;;;;;;16.24;66.68;100770.63;5033197;28;20381;-71
2022/11/01 03:31:31;;;;;;;27.90;26.40;;;;;;;16.25;66.73;100772.22;5032943;28;20025;-71
2022/11/01 03:34:00;;;;;;;27.30;25.90;;;;;;;16.24;66.57;100773.34;5031736;28;20055;-72
2022/11/01 03:36:34;;;;;;;27.48;26.08;;;;;;;16.26;66.15;100784.78;5033429;28;20056;-71
2022/11/01 03:39:08;;;;;;;28.10;26.60;;;;;;;16.27;66.30;100783.69;5032921;28;20037;-72
2022/11/01 03:41:41;;;;;;;28.90;27.30;;;;;;;16.26;66.22;100787.50;5033203;28;20122;-70
2022/11/01 03:44:08;;;;;;;27.30;25.90;;;;;;;16.24;66.10;100792.41;5033016;28;20033;-71
2022/11/01 03:46:33;;;;;;;27.35;26.02;;;;;;;16.26;66.14;100811.22;5033197;28;20128;-74
2022/11/01 03:48:58;;;;;;;26.55;25.25;;;;;;;16.26;65.83;100805.78;5031601;28;20445;-73
2022/11/01 03:51:24;;;;;;;29.25;27.85;;;;;;;16.25;66.10;100807.66;5032503;28;20037;-71
2022/11/01 03:53:49;;;;;;;27.98;26.52;;;;;;;16.23;65.70;100835.22;5033748;28;20529;-71
2022/11/01 03:56:14;;;;;;;28.45;26.35;;;;;;;16.23;65.59;100828.97;5036390;28;20091;-71
2022/11/01 03:58:44;;;;;;;27.15;25.52;;;;;;;16.24;65.68;100822.41;5034967;28;20034;-71
2022/11/01 04:01:11;;;;;;;25.88;24.48;;;;;;;16.24;65.94;100838.75;5035777;28;20030;-71
2022/11/01 04:03:37;;;;;;;25.98;24.67;;;;;;;16.23;65.50;100835.22;5036452;28;20052;-74
2022/11/01 04:06:04;;;;;;;27.52;26.23;;;;;;;16.22;65.63;100840.94;5036089;28;20033;-71
2022/11/01 04:08:29;;;;;;;26.73;25.33;;;;;;;16.23;65.89;100854.28;5036879;28;20462;-71
2022/11/01 04:10:55;;;;;;;27.83;26.42;;;;;;;16.23;65.39;100853.50;5034654;28;20040;-74
2022/11/01 04:13:20;;;;;;;26.48;25.17;;;;;;;16.23;65.36;100859.75;5036252;28;20065;-72
2022/11/01 04:21:16;;;;;;;26.73;25.42;;;;;;;16.21;65.38;100866.56;5036156;28;20389;-71
2022/11/01 04:23:43;;;;;;;26.40;25.10;;;;;;;16.20;65.69;100870.38;5035799;28;20029;-76
2022/11/01 04:26:16;;;;;;;26.23;24.83;;;;;;;16.20;65.28;100879.38;5036233;28;20116;-71
2022/11/01 04:28:55;;;;;;;27.65;25.95;;;;;;;16.19;65.53;100875.00;5036417;28;20037;-74
2022/11/01 04:31:21;;;;;;;;;;;;;;;16.19;65.04;100894.09;5036322;28;20083;-70
2022/11/01 04:33:47;;;;;;;26.20;24.77;;;;;;;16.18;65.42;100902.56;5034839;28;20248;-72
2022/11/01 04:36:12;;;;;;;26.25;24.98;;;;;;;16.17;65.13;100906.34;5034421;28;20116;-70
2022/11/01 04:38:37;;;;;;;25.65;24.45;;;;;;;16.17;64.78;100919.97;5035308;28;20048;-71
2022/11/01 04:41:03;;;;;;;25.92;24.45;;;;;;;16.16;65.16;100927.34;5034421;28;20041;-71
2022/11/01 04:43:28;;;;;;;27.55;26.05;;;;;;;16.17;65.13;100928.16;5035704;28;20030;-70
2022/11/01 04:45:55;;;;;;;27.77;26.23;;;;;;;16.17;64.85;100928.16;5035561;28;20053;-74
2022/11/01 04:48:20;;;;;;;28.42;26.70;;;;;;;16.15;64.96;100936.63;5034341;28;20034;-74
2022/11/01 04:50:46;;;;;;;27.20;25.88;;;;;;;16.15;64.97;100939.34;5035175;28;20033;-74
2022/11/01 04:53:12;;;;;;;27.55;26.25;;;;;;;16.15;64.76;100946.69;5034071;28;20033;-71
2022/11/01 04:55:37;;;;;;;28.00;26.60;;;;;;;16.13;64.46;100954.34;5035211;28;20144;-71
2022/11/01 04:58:05;;;;;;;27.90;26.50;;;;;;;16.11;64.28;100943.72;5035311;28;20060;-71
2022/11/01 05:00:31;;;;;;;26.50;25.20;;;;;;;16.11;64.15;100951.88;5035159;28;20033;-71
2022/11/01 05:03:06;;;;;;;27.60;26.20;;;;;;;16.08;63.87;100955.16;5035053;28;20061;-72
2022/11/01 05:05:32;;;;;;;26.83;25.17;;;;;;;16.09;64.02;100958.69;5034892;28;20022;-72
2022/11/01 05:08:08;;;;;;;28.05;26.60;;;;;;;16.09;63.94;100972.31;5034969;28;20029;-72
2022/11/01 05:10:36;;;;;;;26.85;25.50;;;;;;;16.09;63.81;100975.06;5035475;28;20041;-71
2022/11/01 05:13:02;;;;;;;28.85;27.15;;;;;;;16.07;63.52;100969.88;5034788;28;20033;-71
2022/11/01 05:15:28;;;;;;;27.52;26.13;;;;;;;16.07;63.30;100977.22;5035351;28;20037;-69
2022/11/01 05:17:54;;;;;;;27.75;26.25;;;;;;;16.06;63.30;100970.97;5033279;28;20033;-71
2022/11/01 05:20:20;;;;;;;26.92;25.55;;;;;;;16.06;63.09;100981.06;5035268;28;20120;-71
2022/11/01 05:22:45;;;;;;;26.70;25.40;;;;;;;16.05;62.73;100988.41;5035232;28;20441;-70
2022/11/01 05:25:10;;;;;;;27.63;25.83;;;;;;;16.04;62.84;100989.50;5034304;28;20033;-72
2022/11/01 05:27:37;;;;;;;27.98;26.27;;;;;;;16.02;62.65;100987.03;5034625;28;20029;-71
2022/11/01 05:30:03;;;;;;;29.20;27.60;;;;;;;16.01;62.72;100990.84;5033197;28;20120;-72
2022/11/01 05:32:29;;;;;;;25.73;24.23;;;;;;;16.03;62.82;100996.03;5034118;28;20064;-71
2022/11/01 05:34:54;;;;;;;28.60;27.20;;;;;;;16.04;62.88;100999.59;5033720;28;20034;-70
2022/11/01 05:37:20;;;;;;;26.75;25.25;;;;;;;16.01;62.67;100996.31;5034159;28;20025;-72
2022/11/01 05:39:45;;;;;;;28.83;27.08;;;;;;;16.01;62.61;101014.56;5034098;28;20060;-72
2022/11/01 05:42:10;;;;;;;28.60;27.00;;;;;;;16.01;62.41;101011.84;5034012;28;20156;-72
2022/11/01 05:44:35;;;;;;;28.38;26.58;;;;;;;16.01;62.70;101018.09;5033998;28;20462;-70
2022/11/01 05:47:03;;;;;;;27.48;26.00;;;;;;;16.01;62.35;101011.84;5033143;28;20430;-71
2022/11/01 05:49:28;;;;;;;26.17;24.88;;;;;;;15.99;62.57;101012.09;5034514;28;20038;-70
2022/11/01 05:51:54;;;;;;;26.05;24.50;;;;;;;15.98;62.67;101013.22;5033979;28;20026;-76
2022/11/01 05:54:19;;;;;;;27.55;25.90;;;;;;;15.98;63.05;101017.84;5034317;28;20111;-72
2022/11/01 05:56:44;;;;;;;26.42;25.13;;;;;;;15.97;63.03;101025.19;5032618;28;20037;-70
2022/11/01 05:59:10;;;;;;;27.75;26.25;;;;;;;15.95;63.03;101016.47;5033935;28;20021;-71
2022/11/01 06:01:35;;;;;;;28.00;26.60;;;;;;;15.96;62.87;101028.19;5033903;28;20030;-70
2022/11/01 06:04:01;;;;;;;28.98;27.15;;;;;;;15.92;62.76;101030.63;5032425;28;20462;-70
2022/11/01 06:06:28;;;;;;;26.45;25.13;;;;;;;15.92;62.79;101046.16;5033878;28;20044;-71
2022/11/01 06:08:56;;;;;;;27.13;25.73;;;;;;;15.91;62.84;101047.25;5000206;28;20026;-72
2022/11/01 06:11:21;;;;;;;27.45;25.92;;;;;;;15.90;62.88;101053.78;5033951;28;20450;-71
2022/11/01 06:13:47;;;;;;;26.08;24.77;;;;;;;15.88;62.68;101055.97;5033497;28;20071;-71
2022/11/01 06:16:12;;;;;;;27.23;25.83;;;;;;;15.86;62.63;101053.50;5033419;28;20034;-72
2022/11/01 06:18:37;;;;;;;28.10;26.10;;;;;;;15.84;62.44;101063.84;5032581;28;20088;-70
2022/11/01 06:21:03;;;;;;;27.20;25.80;;;;;;;15.85;62.61;101068.22;5033309;28;20090;-72
2022/11/01 06:23:28;;;;;;;26.80;25.13;;;;;;;15.84;62.36;101071.22;5033104;28;20034;-70
2022/11/01 06:26:01;;;;;;;27.52;26.15;;;;;;;15.82;62.13;101073.38;5015663;28;20052;-71
2022/11/01 06:28:27;;;;;;;27.13;25.48;;;;;;;15.82;62.13;101076.09;5033229;28;20060;-70
2022/11/01 06:30:52;;;;;;;30.75;28.80;;;;;;;15.81;62.36;101069.84;5031665;28;20054;-72
2022/11/01 06:33:18;;;;;;;26.65;25.25;;;;;;;15.81;62.33;101074.47;5033104;28;20045;-71
2022/11/01 06:35:43;;;;;;;26.23;24.90;;;;;;;15.78;62.06;101067.66;5031957;28;20492;-73
2022/11/01 06:38:09;;;;;;;28.80;26.70;;;;;;;15.78;62.03;101079.38;5033153;28;20446;-70
2022/11/01 06:40:35;;;;;;;27.60;26.10;;;;;;;15.78;62.01;101084.00;5032165;28;20596;-72
2022/11/01 06:43:03;;;;;;;26.35;24.95;;;;;;;15.77;62.32;101087.81;5033250;28;20037;-71
2022/11/01 06:45:29;;;;;;;26.48;25.05;;;;;;;15.75;61.69;101090.81;5033134;28;20037;-75
2022/11/01 06:47:55;;;;;;;27.10;25.75;;;;;;;15.75;61.85;101084.56;5033223;28;20068;-70
2022/11/01 06:50:21;;;;;;;27.45;26.05;;;;;;;15.74;61.67;101091.88;5033447;28;20061;-71
2022/11/01 06:52:46;;;;;;;27.23;25.52;;;;;;;15.74;61.57;101100.06;5033240;28;20057;-71
2022/11/01 06:55:12;;;;;;;27.45;26.05;;;;;;;15.75;61.84;101111.78;5033184;28;20060;-71
2022/11/01 06:57:37;;;;;;;27.90;26.40;;;;;;;15.73;61.95;101117.50;5033139;28;20080;-73
2022/11/01 07:00:04;;;;;;;29.13;27.48;;;;;;;15.72;61.89;101123.19;5032845;28;20030;-72
2022/11/01 07:02:29;;;;;;;25.17;23.77;;;;;;;15.71;61.78;101121.56;5032913;28;20053;-72
2022/11/01 07:04:55;;;;;;;26.10;24.73;;;;;;;15.69;61.71;101126.44;5033480;28;20068;-70
2022/11/01 07:07:20;;;;;;;25.00;23.80;;;;;;;15.68;61.43;101124.81;5032103;28;20033;-70
2022/11/01 07:09:45;;;;;;;25.55;24.25;;;;;;;15.69;61.06;101132.72;5033148;28;20477;-72
2022/11/01 07:12:11;;;;;;;29.10;26.98;;;;;;;15.67;61.27;101144.94;5033030;28;20036;-70
2022/11/01 07:14:36;;;;;;;26.80;24.92;;;;;;;15.64;61.19;101142.75;5033290;28;20037;-69
2022/11/01 07:17:01;;;;;;;26.48;25.08;;;;;;;15.63;61.24;101152.84;5033172;28;20063;-75
2022/11/01 07:19:27;;;;;;;27.80;26.00;;;;;;;15.63;61.23;101158.28;5031489;28;20470;-70
2022/11/01 07:21:52;;;;;;;25.85;24.33;;;;;;;15.64;61.47;101159.09;5033159;28;20033;-70
2022/11/01 07:24:18;;;;;;;27.45;26.02;;;;;;;15.61;61.29;101165.88;5033028;28;20481;-70
2022/11/01 07:26:43;;;;;;;26.00;24.60;;;;;;;15.62;61.09;101180.31;5033314;28;20039;-71
2022/11/01 07:29:08;;;;;;;29.92;28.00;;;;;;;15.59;61.41;101171.59;5034398;28;20044;-71
2022/11/01 07:31:36;;;;;;;26.30;24.60;;;;;;;15.58;61.27;101175.41;5036764;28;20089;-70
2022/11/01 07:34:01;;;;;;;26.55;24.95;;;;;;;15.57;61.21;101176.50;5037353;28;20053;-71
2022/11/01 07:36:27;;;;;;;25.33;23.98;;;;;;;15.56;60.87;101184.94;5036626;28;20036;-72
2022/11/01 07:38:52;;;;;;;25.00;23.52;;;;;;;15.54;61.04;101198.78;5036970;28;20065;-72
2022/11/01 07:41:18;;;;;;;28.08;26.15;;;;;;;15.53;60.87;101197.16;5036900;28;20052;-70
2022/11/01 07:43:43;;;;;;;26.30;24.95;;;;;;;15.52;60.93;101205.59;5035410;28;20033;-70
2022/11/01 07:46:08;;;;;;;26.02;24.73;;;;;;;15.52;60.98;101197.41;5036533;28;20037;-72
2022/11/01 07:48:35;;;;;;;27.20;25.50;;;;;;;15.52;60.60;101198.28;5036264;28;20040;-71
2022/11/01 07:51:04;;;;;;;26.40;25.00;;;;;;;15.49;60.64;101200.69;5036405;28;20037;-72
2022/11/01 07:53:29;;;;;;;25.60;24.20;;;;;;;15.50;60.77;101210.50;5036328;28;20477;-72
2022/11/01 07:55:55;;;;;;;26.30;24.95;;;;;;;15.48;60.70;101204.50;5036314;28;20060;-71
2022/11/01 07:58:20;;;;;;;26.95;25.40;;;;;;;15.47;60.16;101219.19;5035834;28;20389;-69
2022/11/01 08:00:45;;;;;;;27.75;25.88;;;;;;;15.47;60.68;101219.19;5036006;28;20099;-71
2022/11/01 08:03:17;;;;;;;28.13;26.67;;;;;;;15.45;60.45;101226.81;5036218;28;20032;-69
2022/11/01 08:05:43;;;;;;;25.95;24.65;;;;;;;15.44;60.46;101236.84;5035909;28;20113;-70
2022/11/01 08:08:09;;;;;;;29.38;26.88;;;;;;;15.45;60.30;101240.44;5034364;28;20045;-75
2022/11/01 08:10:35;;;;;;;27.25;25.58;;;;;;;15.43;60.43;101235.22;5035456;28;20462;-72
2022/11/01 08:13:23;;;;;;;26.50;25.00;;;;;;;15.43;60.86;101229.78;5035637;28;20034;-71
2022/11/01 08:15:50;;;;;;;25.88;24.17;;;;;;;15.43;60.42;101235.22;5035793;28;20037;-70
2022/11/01 08:18:17;;;;;;;27.05;25.02;;;;;;;15.43;60.62;101239.84;5036119;28;20037;-70
2022/11/01 08:20:42;;;;;;;28.15;26.45;;;;;;;15.41;60.59;101231.94;5035411;28;20462;-71
2022/11/01 08:23:09;;;;;;;24.48;23.27;;;;;;;15.40;60.57;101235.75;5035589;28;20139;-69
2022/11/01 08:25:35;;;;;;;26.92;25.10;;;;;;;15.39;60.32;101234.09;5035439;28;20025;-70
2022/11/01 08:28:05;;;;;;;27.27;25.83;;;;;;;15.39;60.74;101238.75;5035585;28;20484;-71
2022/11/01 08:30:31;;;;;;;27.23;25.70;;;;;;;15.38;60.99;101239.84;5035375;28;20158;-70
2022/11/01 08:33:00;;;;;;;26.50;24.38;;;;;;;15.36;60.60;101238.16;5035763;28;20466;-70
2022/11/01 08:35:26;;;;;;;28.98;26.92;;;;;;;15.36;60.52;101246.34;5035278;28;20033;-71
2022/11/01 08:37:53;;;;;;;26.17;24.70;;;;;;;15.35;60.75;101250.16;5035432;28;20033;-71
2022/11/01 08:40:19;;;;;;;26.20;24.80;;;;;;;15.34;60.79;101250.41;5034365;28;20029;-71
2022/11/01 08:42:45;;;;;;;27.17;25.65;;;;;;;15.33;60.85;101257.75;5035467;28;20034;-71
2022/11/01 08:45:11;;;;;;;28.40;26.63;;;;;;;15.33;60.73;101255.03;5034002;28;20548;-71
2022/11/01 08:47:37;;;;;;;26.50;25.10;;;;;;;15.32;61.00;101253.41;5035007;28;20034;-70
2022/11/01 08:50:03;;;;;;;26.40;24.90;;;;;;;15.31;60.93;101251.75;5035125;28;20433;-71
2022/11/01 08:52:28;;;;;;;27.08;25.15;;;;;;;15.31;60.95;101256.38;5035025;28;20063;-71
2022/11/01 08:54:54;;;;;;;26.08;24.40;;;;;;;15.30;60.69;101260.19;5033868;28;20422;-71
2022/11/01 08:57:19;;;;;;;27.60;25.90;;;;;;;15.30;61.10;101271.09;5034992;28;20030;-69
2022/11/01 08:59:44;;;;;;;26.33;24.83;;;;;;;15.29;60.86;101272.97;5033467;28;20029;-69
2022/11/01 09:02:10;;;;;;;26.33;24.35;;;;;;;15.28;60.70;101265.06;5035245;28;20041;-70
2022/11/01 09:04:36;;;;;;;27.48;25.88;;;;;;;15.26;60.57;101268.03;5034731;28;20045;-69
2022/11/01 09:07:01;;;;;;;26.17;24.67;;;;;;;15.25;60.85;101277.31;5033811;28;20044;-70
2022/11/01 09:09:26;;;;;;;26.90;25.30;;;;;;;15.26;60.77;101280.84;5034900;28;20025;-70
2022/11/01 09:11:52;;;;;;;26.13;24.52;;;;;;;15.27;60.65;101285.19;5034660;28;20029;-71
2022/11/01 09:14:22;;;;;;;27.33;25.30;;;;;;;15.25;60.98;101292.81;5034812;28;20057;-70
2022/11/01 09:16:48;;;;;;;27.17;25.42;;;;;;;15.23;60.72;101290.34;5035107;28;20029;-71
2022/11/01 09:19:13;;;;;;;27.42;25.80;;;;;;;15.23;61.08;101303.13;5033538;28;20033;-70
2022/11/01 09:21:39;;;;;;;26.55;24.80;;;;;;;15.23;60.88;101306.69;5034190;28;20029;-69
2022/11/01 09:24:04;;;;;;;29.00;27.33;;;;;;;15.22;60.76;101305.03;5033313;28;20109;-70
2022/11/01 09:26:30;;;;;;;28.30;26.08;;;;;;;15.21;60.75;101305.28;5033218;28;20033;-68
2022/11/01 09:28:57;;;;;;;24.90;23.60;;;;;;;15.23;60.50;101312.13;5033379;28;20386;-81
2022/11/01 09:31:22;;;;;;;24.65;23.38;;;;;;;15.24;59.88;101318.38;5034351;28;20076;-73
